createdAt,value
2018-11-28T00:02:07.294Z,14.40
2018-11-28T00:04:42.930Z,15.78
2018-11-28T00:07:28.592Z,14.65
2018-11-28T00:16:44.846Z,15.95
2018-11-28T00:32:27.739Z,17.10
2018-11-28T00:35:16.211Z,17.27
2018-11-28T00:57:36.193Z,16.35
2018-11-28T01:00:36.045Z,16.27
2018-11-28T01:03:06.189Z,18.07
2018-11-28T01:05:34.950Z,15.40
2018-11-28T01:08:09.469Z,15.70
2018-11-28T01:10:38.446Z,14.60
2018-11-28T01:13:07.174Z,15.58
2018-11-28T01:15:35.939Z,14.95
2018-11-28T01:18:05.745Z,15.20
2018-11-28T01:20:34.418Z,16.10
2018-11-28T01:23:03.201Z,16.65
2018-11-28T01:25:31.807Z,15.80
2018-11-28T01:28:00.581Z,16.85
2018-11-28T01:30:29.797Z,16.10
2018-11-28T01:32:59.285Z,14.33
2018-11-28T01:35:28.681Z,14.25
2018-11-28T01:37:58.500Z,15.35
2018-11-28T01:40:27.457Z,13.75
2018-11-28T01:42:56.976Z,13.75
2018-11-28T01:45:25.943Z,13.80
2018-11-28T01:47:55.949Z,13.05
2018-11-28T01:50:25.604Z,14.45
2018-11-28T01:52:55.244Z,16.50
2018-11-28T01:55:24.548Z,16.25
2018-11-28T01:57:59.824Z,15.70
2018-11-28T02:00:28.503Z,11.95
2018-11-28T02:03:00.198Z,14.58
2018-11-28T02:05:29.464Z,15.90
2018-11-28T02:07:58.761Z,15.32
2018-11-28T02:10:27.415Z,13.45
2018-11-28T02:12:56.094Z,12.95
2018-11-28T02:15:27.059Z,13.40
2018-11-28T02:17:57.358Z,13.85
2018-11-28T02:20:26.017Z,13.75
2018-11-28T02:22:54.663Z,13.70
2018-11-28T02:25:23.928Z,12.95
2018-11-28T02:27:52.857Z,12.60
2018-11-28T02:30:29.053Z,13.40
2018-11-28T02:32:58.974Z,12.20
2018-11-28T02:35:28.691Z,13.78
2018-11-28T02:37:58.773Z,13.05
2018-11-28T02:40:27.851Z,13.25
2018-11-28T02:42:57.836Z,12.15
2018-11-28T02:45:27.931Z,13.05
2018-11-28T02:47:57.343Z,13.15
2018-11-28T02:50:26.942Z,15.03
2018-11-28T02:52:56.712Z,14.07
2018-11-28T02:55:25.668Z,11.88
2018-11-28T03:10:54.521Z,14.58
2018-11-28T03:13:38.012Z,13.10
2018-11-28T03:16:20.167Z,12.85
2018-11-28T03:18:54.833Z,12.70
2018-11-28T03:21:30.875Z,14.78
2018-11-28T03:24:05.629Z,13.65
2018-11-28T03:26:49.191Z,13.78
2018-11-28T03:29:27.138Z,13.25
2018-11-28T03:31:55.379Z,12.70
2018-11-28T03:34:23.692Z,14.03
2018-11-28T03:36:52.173Z,12.80
2018-11-28T03:39:20.502Z,12.15
2018-11-28T03:41:48.887Z,12.18
2018-11-28T03:44:17.215Z,12.05
2018-11-28T03:46:45.453Z,13.72
2018-11-28T03:49:13.747Z,11.85
2018-11-28T03:51:42.109Z,11.75
2018-11-28T03:54:10.498Z,13.85
2018-11-28T03:56:38.781Z,12.63
2018-11-28T03:59:07.086Z,12.40
2018-11-28T04:01:35.379Z,13.25
2018-11-28T04:04:03.703Z,13.08
2018-11-28T04:06:31.904Z,13.15
2018-11-28T04:09:00.231Z,13.05
2018-11-28T04:11:28.748Z,12.58
2018-11-28T04:13:56.994Z,13.75
2018-11-28T04:16:25.228Z,12.25
2018-11-28T04:18:53.487Z,13.72
2018-11-28T04:21:21.714Z,14.25
2018-11-28T04:23:50.088Z,13.32
2018-11-28T04:26:18.381Z,13.50
2018-11-28T04:28:46.625Z,12.85
2018-11-28T04:31:14.916Z,14.98
2018-11-28T04:33:43.222Z,13.28
2018-11-28T04:36:11.536Z,12.55
2018-11-28T04:38:40.899Z,14.63
2018-11-28T04:41:09.162Z,15.20
2018-11-28T04:43:37.484Z,13.43
2018-11-28T04:46:06.250Z,13.78
2018-11-28T04:48:34.704Z,13.25
2018-11-28T04:51:03.223Z,13.45
2018-11-28T04:53:32.023Z,14.58
2018-11-28T04:56:00.256Z,12.93
2018-11-28T04:58:28.730Z,15.10
2018-11-28T05:00:58.095Z,14.85
2018-11-28T05:03:30.226Z,13.22
2018-11-28T05:05:58.535Z,14.38
2018-11-28T05:08:26.995Z,14.80
2018-11-28T05:10:55.397Z,13.38
2018-11-28T05:13:23.751Z,13.68
2018-11-28T05:15:52.049Z,14.75
2018-11-28T05:18:20.526Z,14.70
2018-11-28T05:20:48.882Z,13.70
2018-11-28T05:23:17.098Z,12.75
2018-11-28T05:25:45.614Z,13.08
2018-11-28T05:28:13.849Z,13.75
2018-11-28T05:30:42.273Z,13.30
2018-11-28T05:33:10.515Z,13.22
2018-11-28T05:35:39.878Z,13.80
2018-11-28T05:38:13.758Z,14.68
2018-11-28T05:40:43.236Z,13.30
2018-11-28T05:43:11.628Z,14.40
2018-11-28T05:45:39.943Z,14.23
2018-11-28T05:48:08.238Z,15.83
2018-11-28T05:50:36.754Z,14.45
2018-11-28T05:53:05.075Z,13.60
2018-11-28T05:55:33.726Z,13.93
2018-11-28T05:58:02.716Z,14.73
2018-11-28T06:00:35.929Z,14.93
2018-11-28T06:03:05.901Z,14.47
2018-11-28T06:05:34.354Z,14.05
2018-11-28T06:08:02.683Z,16.75
2018-11-28T06:10:31.172Z,15.78
2018-11-28T06:12:59.477Z,13.90
2018-11-28T06:15:27.841Z,14.47
2018-11-28T06:17:56.206Z,16.25
2018-11-28T06:20:24.564Z,14.40
2018-11-28T06:22:53.016Z,14.93
2018-11-28T06:25:21.613Z,15.58
2018-11-28T06:27:56.165Z,15.63
2018-11-28T06:30:24.717Z,14.10
2018-11-28T06:32:54.328Z,15.72
2018-11-28T06:35:22.579Z,14.65
2018-11-28T06:37:52.100Z,14.55
2018-11-28T06:40:24.335Z,15.78
2018-11-28T06:42:51.656Z,14.70
2018-11-28T06:45:23.256Z,14.05
2018-11-28T06:47:52.941Z,14.05
2018-11-28T06:50:21.518Z,13.15
2018-11-28T06:52:51.174Z,12.18
2018-11-28T06:55:22.869Z,13.20
2018-11-28T06:57:51.548Z,14.13
2018-11-28T07:00:21.531Z,15.40
2018-11-28T07:02:51.443Z,14.20
2018-11-28T07:05:27.050Z,15.28
2018-11-28T07:07:57.833Z,14.63
2018-11-28T07:10:27.506Z,15.00
2018-11-28T07:12:58.267Z,13.55
2018-11-28T07:15:28.032Z,15.18
2018-11-28T07:21:00.877Z,15.28
2018-11-28T07:23:30.892Z,15.43
2018-11-28T07:26:01.158Z,13.95
2018-11-28T07:28:31.932Z,13.05
2018-11-28T07:31:02.385Z,15.35
2018-11-28T07:33:31.132Z,15.65
2018-11-28T07:35:59.858Z,15.10
2018-11-28T07:38:28.306Z,15.60
2018-11-28T07:40:56.913Z,17.42
2018-11-28T07:43:25.213Z,15.03
2018-11-28T07:45:53.728Z,13.50
2018-11-28T07:48:22.781Z,15.72
2018-11-28T07:50:51.289Z,15.88
2018-11-28T07:53:19.553Z,14.33
2018-11-28T07:55:47.862Z,15.15
2018-11-28T07:58:16.143Z,14.93
2018-11-28T08:00:45.934Z,13.13
2018-11-28T08:03:14.303Z,17.10
2018-11-28T08:05:42.630Z,14.45
2018-11-28T08:08:11.553Z,17.35
2018-11-28T08:10:40.269Z,13.50
2018-11-28T08:13:09.927Z,14.95
2018-11-28T08:15:39.890Z,14.25
2018-11-28T08:18:08.957Z,15.10
2018-11-28T08:20:37.537Z,15.60
2018-11-28T08:23:06.004Z,18.15
2018-11-28T08:25:34.796Z,16.30
2018-11-28T08:28:03.240Z,14.85
2018-11-28T08:30:31.929Z,15.95
2018-11-28T08:33:00.415Z,16.77
2018-11-28T08:35:29.014Z,15.35
2018-11-28T08:37:57.570Z,15.35
2018-11-28T08:40:26.580Z,15.85
2018-11-28T08:42:56.502Z,14.90
2018-11-28T08:45:25.009Z,14.78
2018-11-28T08:47:56.281Z,14.00
2018-11-28T08:50:34.807Z,14.45
2018-11-28T08:53:03.383Z,15.30
2018-11-28T08:55:31.850Z,14.65
2018-11-28T08:58:01.528Z,15.95
2018-11-28T09:00:31.091Z,15.00
2018-11-28T09:03:02.622Z,14.83
2018-11-28T09:05:31.198Z,15.15
2018-11-28T09:07:59.613Z,15.48
2018-11-28T09:10:28.674Z,14.10
2018-11-28T09:12:57.124Z,15.00
2018-11-28T09:15:31.892Z,14.05
2018-11-28T09:18:00.412Z,15.00
2018-11-28T09:20:28.974Z,15.68
2018-11-28T09:22:57.362Z,14.58
2018-11-28T09:25:25.790Z,15.75
2018-11-28T09:27:56.264Z,15.05
2018-11-28T09:30:38.064Z,14.83
2018-11-28T09:33:06.594Z,14.15
2018-11-28T09:35:34.898Z,14.23
2018-11-28T09:38:03.739Z,14.90
2018-11-28T09:40:32.120Z,13.98
2018-11-28T09:43:00.523Z,16.60
2018-11-28T09:45:29.596Z,13.00
2018-11-28T09:47:57.920Z,14.30
2018-11-28T09:50:26.749Z,14.43
2018-11-28T09:52:55.181Z,14.98
2018-11-28T09:55:26.640Z,14.58
2018-11-28T09:57:55.180Z,13.85
2018-11-28T10:00:24.982Z,14.78
2018-11-28T10:02:56.227Z,14.95
2018-11-28T10:05:27.307Z,14.83
2018-11-28T10:07:55.671Z,13.55
2018-11-28T10:10:24.031Z,13.10
2018-11-28T10:12:52.536Z,14.53
2018-11-28T10:15:22.116Z,13.80
2018-11-28T10:17:50.532Z,14.05
2018-11-28T10:20:19.290Z,13.78
2018-11-28T10:22:48.803Z,15.58
2018-11-28T10:25:21.607Z,15.08
2018-11-28T10:28:00.748Z,14.28
2018-11-28T10:30:37.690Z,14.98
2018-11-28T10:33:09.513Z,13.35
2018-11-28T10:35:39.161Z,14.30
2018-11-28T10:38:07.654Z,16.40
2018-11-28T10:40:36.574Z,17.17
2018-11-28T10:43:05.918Z,14.60
2018-11-28T10:45:34.764Z,14.38
2018-11-28T10:48:03.239Z,13.68
2018-11-28T10:50:31.652Z,15.93
2018-11-28T10:52:59.875Z,15.60
2018-11-28T10:55:28.376Z,14.55
2018-11-28T10:57:56.843Z,15.05
2018-11-28T11:00:33.846Z,14.25
2018-11-28T11:03:08.324Z,16.10
2018-11-28T11:05:42.369Z,14.38
2018-11-28T11:08:16.346Z,14.15
2018-11-28T11:10:50.310Z,16.17
2018-11-28T11:13:25.189Z,15.18
2018-11-28T11:15:54.565Z,14.20
2018-11-28T11:18:23.011Z,12.90
2018-11-28T11:20:51.842Z,13.70
2018-11-28T11:23:20.126Z,15.00
2018-11-28T11:25:48.648Z,16.42
2018-11-28T11:28:17.186Z,13.90
2018-11-28T11:30:45.759Z,15.10
2018-11-28T11:33:14.267Z,14.60
2018-11-28T11:35:42.706Z,14.28
2018-11-28T11:38:11.174Z,13.85
2018-11-28T11:40:39.561Z,14.28
2018-11-28T11:43:08.602Z,14.50
2018-11-28T11:45:36.924Z,14.53
2018-11-28T11:48:05.813Z,13.90
2018-11-28T11:50:34.318Z,12.82
2018-11-28T11:53:02.731Z,14.35
2018-11-28T11:55:31.058Z,15.78
2018-11-28T11:57:59.695Z,14.13
2018-11-28T12:00:28.209Z,13.55
2018-11-28T12:03:04.253Z,12.58
2018-11-28T12:05:32.557Z,12.33
2018-11-28T12:08:00.834Z,11.95
2018-11-28T12:10:29.165Z,12.68
2018-11-28T12:12:57.713Z,12.55
2018-11-28T12:15:26.250Z,13.62
2018-11-28T12:17:54.714Z,12.73
2018-11-28T12:20:36.342Z,12.05
2018-11-28T12:23:05.261Z,12.53
2018-11-28T12:25:33.920Z,10.80
2018-11-28T12:28:02.399Z,13.35
2018-11-28T12:30:30.803Z,13.20
2018-11-28T12:32:59.097Z,12.28
2018-11-28T12:35:27.414Z,11.45
2018-11-28T12:37:55.885Z,11.38
2018-11-28T12:40:24.360Z,11.60
2018-11-28T12:42:53.274Z,12.35
2018-11-28T12:45:21.903Z,12.63
2018-11-28T12:47:50.634Z,11.83
2018-11-28T12:50:26.241Z,12.40
2018-11-28T12:52:56.477Z,11.90
2018-11-28T12:55:25.197Z,11.97
2018-11-28T12:57:54.367Z,12.68
2018-11-28T13:00:27.169Z,11.97
2018-11-28T13:02:55.557Z,12.33
2018-11-28T13:05:27.278Z,11.08
2018-11-28T13:07:55.610Z,12.50
2018-11-28T13:10:29.745Z,11.33
2018-11-28T13:12:58.032Z,12.15
2018-11-28T13:15:26.735Z,10.53
2018-11-28T13:17:55.157Z,11.95
2018-11-28T13:20:23.598Z,11.08
2018-11-28T13:22:54.233Z,9.60
2018-11-28T13:25:26.058Z,9.15
2018-11-28T13:27:54.764Z,10.72
2018-11-28T13:30:24.575Z,10.45
2018-11-28T13:32:54.803Z,9.70
2018-11-28T13:35:26.276Z,10.18
2018-11-28T13:38:01.085Z,9.95
2018-11-28T13:40:29.666Z,10.00
2018-11-28T13:42:58.014Z,10.95
2018-11-28T13:45:30.243Z,10.05
2018-11-28T13:47:58.589Z,8.50
2018-11-28T13:50:27.001Z,10.98
2018-11-28T13:52:56.584Z,10.45
2018-11-28T13:55:38.518Z,10.20
2018-11-28T13:58:02.517Z,10.53
2018-11-28T14:00:30.859Z,9.95
2018-11-28T14:02:59.187Z,9.58
2018-11-28T14:05:27.583Z,9.10
2018-11-28T14:07:55.922Z,8.40
2018-11-28T14:10:24.211Z,9.80
2018-11-28T14:12:52.725Z,8.33
2018-11-28T14:15:22.892Z,8.90
2018-11-28T14:17:59.320Z,7.92
2018-11-28T14:20:27.672Z,8.88
2018-11-28T14:22:55.993Z,9.88
2018-11-28T14:25:24.382Z,8.70
2018-11-28T14:27:52.744Z,9.95
2018-11-28T14:30:25.193Z,8.63
2018-11-28T14:32:52.789Z,10.95
2018-11-28T14:35:22.244Z,9.48
2018-11-28T14:37:50.975Z,8.90
2018-11-28T14:40:21.428Z,9.93
2018-11-28T14:42:53.789Z,8.70
2018-11-28T14:45:22.262Z,8.83
2018-11-28T14:47:51.552Z,9.70
2018-11-28T14:50:21.557Z,8.98
2018-11-28T14:52:50.220Z,10.25
2018-11-28T14:55:20.588Z,9.65
2018-11-28T14:57:48.844Z,10.10
2018-11-28T15:00:22.791Z,9.70
2018-11-28T15:03:14.884Z,9.88
2018-11-28T15:07:53.080Z,8.15
2018-11-28T15:10:34.664Z,8.28
2018-11-28T15:13:03.050Z,9.23
2018-11-28T15:15:31.457Z,8.13
2018-11-28T15:17:59.856Z,9.45
2018-11-28T15:20:28.154Z,8.30
2018-11-28T15:22:56.591Z,7.65
2018-11-28T15:25:25.118Z,8.05
2018-11-28T15:27:53.446Z,8.60
2018-11-28T15:30:22.384Z,8.75
2018-11-28T15:32:51.363Z,8.30
2018-11-28T15:35:20.235Z,8.90
2018-11-28T15:37:48.947Z,8.65
2018-11-28T15:40:17.663Z,7.78
2018-11-28T15:42:46.255Z,7.72
2018-11-28T15:45:15.382Z,8.10
2018-11-28T15:47:44.132Z,8.90
2018-11-28T15:50:13.013Z,7.53
2018-11-28T15:52:42.768Z,8.95
2018-11-28T15:55:13.052Z,7.70
2018-11-28T15:57:42.011Z,9.35
2018-11-28T16:00:17.788Z,8.85
2018-11-28T16:02:46.652Z,9.20
2018-11-28T16:05:15.372Z,9.33
2018-11-28T16:07:44.640Z,9.40
2018-11-28T16:10:19.660Z,9.20
2018-11-28T16:12:49.016Z,9.28
2018-11-28T16:15:21.783Z,8.63
2018-11-28T16:17:50.533Z,9.20
2018-11-28T16:20:19.131Z,9.15
2018-11-28T16:22:48.123Z,9.45
2018-11-28T16:25:16.625Z,9.48
2018-11-28T16:27:45.219Z,10.20
2018-11-28T16:30:16.280Z,10.03
2018-11-28T16:32:46.010Z,10.03
2018-11-28T16:35:16.191Z,10.13
2018-11-28T16:37:45.106Z,9.63
2018-11-28T16:40:15.282Z,9.45
2018-11-28T16:42:44.202Z,10.35
2018-11-28T16:45:18.639Z,11.57
2018-11-28T16:47:47.492Z,10.88
2018-11-28T16:50:17.933Z,11.63
2018-11-28T16:52:47.023Z,11.93
2018-11-28T16:55:17.046Z,11.70
2018-11-28T16:57:54.201Z,13.08
2018-11-28T17:00:25.272Z,11.30
2018-11-28T17:02:54.881Z,11.33
2018-11-28T17:05:23.686Z,11.75
2018-11-28T17:07:53.160Z,11.10
2018-11-28T17:10:26.840Z,11.60
2018-11-28T17:12:56.618Z,12.13
2018-11-28T17:15:25.135Z,12.13
2018-11-28T17:17:53.498Z,10.03
2018-11-28T17:20:24.509Z,13.75
2018-11-28T17:22:54.771Z,13.03
2018-11-28T17:25:25.076Z,11.53
2018-11-28T17:27:53.557Z,11.10
2018-11-28T17:30:24.941Z,12.78
2018-11-28T17:32:53.374Z,11.93
2018-11-28T17:35:21.819Z,12.78
2018-11-28T17:37:50.730Z,11.20
2018-11-28T17:40:22.152Z,12.78
2018-11-28T17:42:53.957Z,12.40
2018-11-28T17:45:23.127Z,12.70
2018-11-28T17:47:51.866Z,13.75
2018-11-28T17:50:23.433Z,12.85
2018-11-28T17:53:16.240Z,14.07
2018-11-28T17:55:53.531Z,12.73
2018-11-28T17:58:22.070Z,12.20
2018-11-28T18:00:50.799Z,12.55
2018-11-28T18:03:20.230Z,12.70
2018-11-28T18:05:48.941Z,13.55
2018-11-28T18:08:17.936Z,11.63
2018-11-28T18:10:46.482Z,12.53
2018-11-28T18:13:16.891Z,13.62
2018-11-28T18:15:52.738Z,12.63
2018-11-28T18:18:27.705Z,13.75
2018-11-28T18:20:56.184Z,14.30
2018-11-28T18:23:24.737Z,12.35
2018-11-28T18:25:54.700Z,14.28
2018-11-28T18:28:23.605Z,13.05
2018-11-28T18:30:52.442Z,14.25
2018-11-28T18:33:21.789Z,14.95
2018-11-28T18:35:50.471Z,13.60
2018-11-28T18:38:19.440Z,14.60
2018-11-28T18:40:48.205Z,13.08
2018-11-28T18:43:16.817Z,14.78
2018-11-28T18:45:50.506Z,13.98
2018-11-28T18:48:19.897Z,13.00
2018-11-28T18:50:48.464Z,13.83
2018-11-28T18:53:17.224Z,13.85
2018-11-28T18:55:47.702Z,12.95
2018-11-28T18:58:16.578Z,12.43
2018-11-28T19:00:45.521Z,13.80
2018-11-28T19:03:14.786Z,14.83
2018-11-28T19:05:43.588Z,14.70
2018-11-28T19:11:05.902Z,14.25
2018-11-28T19:13:34.918Z,13.95
2018-11-28T19:16:03.975Z,14.28
2018-11-28T19:18:33.043Z,12.70
2018-11-28T19:21:01.807Z,12.93
2018-11-28T19:23:30.575Z,13.03
2018-11-28T19:26:01.335Z,12.73
2018-11-28T19:28:31.510Z,14.03
2018-11-28T19:31:00.330Z,13.38
2018-11-28T19:33:29.146Z,12.88
2018-11-28T19:35:59.013Z,12.45
2018-11-28T19:38:28.205Z,12.85
2018-11-28T19:41:02.420Z,14.35
2018-11-28T19:43:30.926Z,14.60
2018-11-28T19:45:59.983Z,12.85
2018-11-28T19:48:29.013Z,12.63
2018-11-28T19:50:58.749Z,13.40
2018-11-28T19:53:27.788Z,12.50
2018-11-28T19:55:56.427Z,12.37
2018-11-28T19:58:26.503Z,13.60
2018-11-28T20:00:55.487Z,13.15
2018-11-28T20:06:10.384Z,13.50
2018-11-28T20:08:39.385Z,14.73
2018-11-28T20:11:08.308Z,13.93
2018-11-28T20:13:37.170Z,12.98
2018-11-28T20:16:08.450Z,13.22
2018-11-28T20:32:25.330Z,13.80
2018-11-28T20:34:55.741Z,14.33
2018-11-28T20:37:25.108Z,13.13
2018-11-28T20:39:54.594Z,13.22
2018-11-28T20:42:24.486Z,13.48
2018-11-28T20:44:54.510Z,12.90
2018-11-28T20:47:23.411Z,14.47
2018-11-28T20:49:53.051Z,13.20
2018-11-28T20:52:22.457Z,13.83
2018-11-28T20:54:51.961Z,13.15
2018-11-28T20:57:24.710Z,13.15
2018-11-28T20:59:54.395Z,14.20
2018-11-28T21:02:51.579Z,13.70
2018-11-28T21:05:43.436Z,13.25
2018-11-28T21:08:12.503Z,13.30
2018-11-28T21:10:51.219Z,14.00
2018-11-28T21:13:24.071Z,13.00
2018-11-28T21:15:53.680Z,13.25
2018-11-28T21:18:22.775Z,13.10
2018-11-28T21:20:51.611Z,13.85
2018-11-28T21:23:22.961Z,13.30
2018-11-28T21:25:53.346Z,14.50
2018-11-28T21:34:01.566Z,13.15
2018-11-28T21:36:32.311Z,11.88
2018-11-28T21:39:02.045Z,11.75
2018-11-28T21:41:31.342Z,11.90
2018-11-28T21:44:00.001Z,10.28
2018-11-28T21:46:28.749Z,13.30
2018-11-28T21:48:57.419Z,13.28
2018-11-28T21:51:26.365Z,13.15
2018-11-28T21:53:55.009Z,12.07
2018-11-28T21:56:23.494Z,12.40
2018-11-28T21:58:52.140Z,12.23
2018-11-28T22:01:20.676Z,10.75
2018-11-28T22:03:49.269Z,12.70
2018-11-28T22:06:18.053Z,11.30
2018-11-28T22:08:47.070Z,11.90
2018-11-28T22:11:15.839Z,12.50
2018-11-28T22:13:44.508Z,13.50
2018-11-28T22:16:13.342Z,11.73
2018-11-28T22:18:44.780Z,12.80
2018-11-28T22:21:13.397Z,11.57
2018-11-28T22:23:42.099Z,12.10
2018-11-28T22:26:10.840Z,12.30
2018-11-28T22:28:39.646Z,10.98
2018-11-28T22:31:08.316Z,12.15
2018-11-28T22:33:36.804Z,12.05
2018-11-28T22:36:05.721Z,12.30
2018-11-28T22:38:34.770Z,12.13
2018-11-28T22:41:03.576Z,12.03
2018-11-28T22:43:31.993Z,12.80
2018-11-28T22:46:00.514Z,12.68
2018-11-28T22:48:35.792Z,12.65
2018-11-28T22:51:04.527Z,13.10
2018-11-28T22:53:33.119Z,12.33
2018-11-28T22:56:01.862Z,11.28
2018-11-28T22:58:30.663Z,12.43
2018-11-28T23:01:04.928Z,12.40
2018-11-28T23:03:33.476Z,11.55
2018-11-28T23:06:02.144Z,12.28
2018-11-28T23:08:30.613Z,11.50
2018-11-28T23:10:59.238Z,11.85
2018-11-28T23:13:27.698Z,11.20
2018-11-28T23:15:56.214Z,13.03
2018-11-28T23:18:24.793Z,9.98
2018-11-28T23:20:53.365Z,11.68
2018-11-28T23:23:21.808Z,12.00
2018-11-28T23:25:50.430Z,10.48
2018-11-28T23:28:19.084Z,10.95
2018-11-28T23:30:49.232Z,11.78
2018-11-28T23:33:19.541Z,11.40
2018-11-28T23:35:49.339Z,13.20
2018-11-28T23:38:18.635Z,12.58
2018-11-28T23:40:52.177Z,10.98
2018-11-28T23:43:20.900Z,10.85
2018-11-28T23:45:50.335Z,10.72
2018-11-28T23:48:19.308Z,10.55
2018-11-28T23:50:48.483Z,11.43
2018-11-28T23:53:17.447Z,10.82
2018-11-28T23:55:46.286Z,12.10
2018-11-28T23:58:15.717Z,12.20
